Time;durP1;ratioP1;P1;durP2;ratioP2;P2;SDS_P1;SDS_P2;PMS_P1;PMS_P2;Temp;Humidity;BMP_temperature;BMP_pressure;BME280_temperature;BME280_humidity;BME280_pressure;Samples;Min_cycle;Max_cycle;Signal;HPM_P1;HPM_P2
2023/01/09 00:00:57;;;;;;;43.50;25.20;;;;;;;3.46;91.93;99585.25;107334;1257;82006;-56
2023/01/09 00:03:34;;;;;;;44.00;25.30;;;;;;;3.50;92.02;99586.79;107297;1259;83924;-52
2023/01/09 00:06:11;;;;;;;46.70;26.60;;;;;;;3.46;91.91;99579.23;107174;1257;97810;-53
2023/01/09 00:08:52;;;;;;;49.40;27.50;;;;;;;3.50;91.81;99572.20;107164;1257;89152;-49
2023/01/09 00:11:29;;;;;;;46.60;26.70;;;;;;;3.57;91.81;99577.15;107253;1259;93840;-58
2023/01/09 00:14:07;;;;;;;40.70;23.00;;;;;;;3.58;91.92;99581.46;107279;1257;81141;-58
2023/01/09 00:16:51;;;;;;;46.50;27.70;;;;;;;3.51;91.96;99576.38;107277;1259;82877;-57
2023/01/09 00:19:27;;;;;;;47.10;25.40;;;;;;;3.50;92.02;99573.20;107300;1257;99796;-55
2023/01/09 00:22:09;;;;;;;47.50;27.90;;;;;;;3.54;91.98;99568.66;107316;1259;89068;-56
2023/01/09 00:24:49;;;;;;;43.70;25.80;;;;;;;3.54;92.08;99564.63;107338;1257;94274;-58
2023/01/09 00:27:28;;;;;;;48.00;27.90;;;;;;;3.55;91.95;99569.67;107311;1257;77434;-60
2023/01/09 00:30:09;;;;;;;55.10;27.00;;;;;;;3.52;92.06;99579.17;107359;1257;81328;-51
2023/01/09 00:32:50;;;;;;;44.40;25.30;;;;;;;3.53;91.85;99585.59;107291;1257;96447;-56
2023/01/09 00:35:26;;;;;;;44.10;25.80;;;;;;;3.54;91.87;99588.79;107357;1257;87637;-55
2023/01/09 00:38:02;;;;;;;46.20;27.50;;;;;;;3.58;91.87;99589.64;107316;1257;93334;-55
2023/01/09 00:40:42;;;;;;;41.20;24.50;;;;;;;3.59;91.73;99589.70;107298;1256;81031;-55
2023/01/09 00:43:25;;;;;;;44.50;26.90;;;;;;;3.59;91.94;99589.77;107296;1257;82783;-56
2023/01/09 00:46:09;;;;;;;43.90;26.00;;;;;;;3.55;91.90;99593.49;107284;1258;99533;-57
2023/01/09 00:48:50;;;;;;;42.90;24.60;;;;;;;3.53;92.23;99589.98;107259;1257;88942;-57
2023/01/09 00:51:27;;;;;;;41.40;24.60;;;;;;;3.53;92.00;99592.01;107313;1257;95565;-56
2023/01/09 00:54:05;;;;;;;44.50;25.30;;;;;;;3.53;91.91;99588.80;107323;1257;80054;-56
2023/01/09 00:56:42;;;;;;;44.80;25.80;;;;;;;3.53;91.82;99585.17;107343;1257;83192;-56
2023/01/09 00:59:22;;;;;;;40.90;25.00;;;;;;;3.51;91.72;99574.17;107259;1259;99143;-56
2023/01/09 01:02:02;;;;;;;40.90;24.60;;;;;;;3.50;91.72;99563.48;107290;1257;87762;-56
2023/01/09 01:07:42;;;;;;;45.40;25.70;;;;;;;3.43;91.95;99545.19;107304;1257;77512;-56
2023/01/09 01:10:25;;;;;;;42.50;26.00;;;;;;;3.43;92.00;99548.92;107296;1257;81886;-57
2023/01/09 01:13:09;;;;;;;42.10;25.90;;;;;;;3.42;91.86;99537.61;107302;1257;100066;-56
2023/01/09 01:15:47;;;;;;;40.60;25.00;;;;;;;3.40;92.00;99528.90;107321;1257;89620;-55
2023/01/09 01:18:27;;;;;;;40.50;24.40;;;;;;;3.38;91.92;99533.79;107348;1257;94994;-55
2023/01/09 01:21:08;;;;;;;40.50;24.60;;;;;;;3.39;91.95;99543.64;107310;1259;79500;-56
2023/01/09 01:23:46;;;;;;;44.20;25.30;;;;;;;3.42;92.08;99534.05;107315;1259;80279;-56
2023/01/09 01:26:26;;;;;;;40.70;24.90;;;;;;;3.41;92.06;99531.27;107315;1255;97939;-56
2023/01/09 01:29:09;;;;;;;41.80;25.10;;;;;;;3.45;92.06;99527.02;107303;1256;88578;-53
2023/01/09 01:31:57;;;;;;;41.30;25.10;;;;;;;3.50;92.20;99529.26;107266;1257;94367;-54
2023/01/09 01:34:42;;;;;;;41.40;25.60;;;;;;;3.46;92.17;99529.21;107298;1257;81857;-56
2023/01/09 01:37:20;;;;;;;43.40;24.00;;;;;;;3.49;92.27;99531.34;107293;1255;83089;-56
2023/01/09 01:40:03;;;;;;;42.10;25.50;;;;;;;3.46;92.20;99524.91;107297;1259;96898;-55
2023/01/09 01:42:45;;;;;;;40.20;24.80;;;;;;;3.42;92.27;99516.59;107274;1257;88804;-54
2023/01/09 01:45:25;;;;;;;45.20;25.50;;;;;;;3.43;92.22;99518.09;107250;1257;95165;-58
2023/01/09 01:48:07;;;;;;;39.80;24.20;;;;;;;3.49;92.31;99523.00;107303;1257;80898;-52
2023/01/09 01:50:54;;;;;;;38.80;24.30;;;;;;;3.47;92.08;99528.36;107293;1256;82935;-58
2023/01/09 01:53:41;;;;;;;40.30;25.40;;;;;;;3.44;92.22;99529.74;107284;1259;99586;-57
2023/01/09 01:56:24;;;;;;;45.40;26.20;;;;;;;3.51;92.24;99530.72;107307;1257;87439;-54
2023/01/09 01:59:08;;;;;;;45.30;26.40;;;;;;;3.48;92.12;99526.27;107300;1259;94181;-53
2023/01/09 02:01:52;;;;;;;39.40;24.40;;;;;;;3.51;91.96;99529.70;107278;1255;79612;-58
2023/01/09 02:04:29;;;;;;;36.90;23.30;;;;;;;3.55;92.16;99530.38;107202;1257;81880;-58
2023/01/09 02:07:13;;;;;;;38.70;24.10;;;;;;;3.57;92.10;99533.79;107348;1257;99829;-56
2023/01/09 02:09:50;;;;;;;42.10;25.80;;;;;;;3.61;91.97;99538.90;107294;1257;89125;-56
2023/01/09 02:12:27;;;;;;;39.90;24.30;;;;;;;3.65;91.86;99535.44;107289;1257;94420;-57
2023/01/09 02:15:08;;;;;;;45.40;26.50;;;;;;;3.63;91.89;99531.66;107323;1256;81323;-55
2023/01/09 02:18:19;;;;;;;40.80;25.80;;;;;;;3.64;91.85;99534.89;107312;1257;80290;-56
2023/01/09 02:21:03;;;;;;;39.90;22.80;;;;;;;3.65;91.95;99531.03;107276;1257;100007;-48
2023/01/09 02:24:17;;;;;;;39.80;24.50;;;;;;;3.67;91.96;99537.43;107295;1257;88663;-55
2023/01/09 02:27:16;;;;;;;40.70;23.70;;;;;;;3.64;92.07;99534.13;107218;1257;93191;-55
2023/01/09 02:30:30;;;;;;;41.50;25.50;;;;;;;3.64;92.06;99530.27;107222;1259;81136;-54
2023/01/09 02:33:29;;;;;;;38.00;24.10;;;;;;;3.70;92.03;99524.95;107281;1257;81316;-55
2023/01/09 02:36:17;;;;;;;43.90;25.10;;;;;;;3.70;91.94;99519.05;107263;1257;98851;-57
2023/01/09 02:39:11;;;;;;;39.60;24.50;;;;;;;3.73;91.96;99524.42;107329;1257;89096;-58
2023/01/09 02:41:58;;;;;;;41.80;25.60;;;;;;;3.76;91.78;99521.75;107291;1257;95564;-57
2023/01/09 02:44:43;;;;;;;40.70;24.50;;;;;;;3.78;92.12;99519.11;107318;1257;81099;-57
2023/01/09 02:47:43;;;;;;;41.10;24.40;;;;;;;3.80;91.90;99514.93;107369;1259;82038;-50
2023/01/09 02:50:24;;;;;;;41.80;25.30;;;;;;;3.82;91.91;99510.48;107303;1257;97946;-57
2023/01/09 02:53:43;;;;;;;43.30;25.60;;;;;;;3.76;92.05;99506.61;107306;1257;87705;-53
2023/01/09 02:56:47;;;;;;;41.50;25.00;;;;;;;3.84;91.96;99509.65;107324;1257;92027;-55
2023/01/09 02:59:39;;;;;;;;;;;;;;;3.85;91.82;99511.39;107253;1257;82280;-51
2023/01/09 03:02:43;;;;;;;40.50;25.00;;;;;;;3.87;91.77;99506.81;107252;1257;81264;-57
2023/01/09 03:05:30;;;;;;;38.90;24.10;;;;;;;3.90;91.68;99511.52;107138;1256;100112;-57
2023/01/09 03:08:13;;;;;;;41.20;24.40;;;;;;;3.87;91.92;99506.02;107281;1257;87086;-56
2023/01/09 03:10:56;;;;;;;42.30;26.40;;;;;;;3.87;91.96;99495.96;107293;1257;93845;-56
2023/01/09 03:13:38;;;;;;;41.40;25.70;;;;;;;3.86;91.85;99484.17;107251;1258;80099;-54
2023/01/09 03:16:27;;;;;;;39.40;24.50;;;;;;;3.91;91.62;99485.58;107175;1257;83407;-57
2023/01/09 03:19:11;;;;;;;42.50;26.30;;;;;;;3.94;91.73;99484.88;107281;1257;99182;-53
2023/01/09 03:21:50;;;;;;;39.00;24.70;;;;;;;3.97;91.58;99487.60;107315;1257;87694;-57
2023/01/09 03:24:37;;;;;;;43.00;26.60;;;;;;;3.95;91.48;99485.06;107290;1257;93743;-57
2023/01/09 03:27:16;;;;;;;41.70;24.70;;;;;;;4.00;91.68;99483.98;107326;1257;78518;-55
2023/01/09 03:29:52;;;;;;;40.00;25.10;;;;;;;4.03;91.71;99474.92;107289;1259;82914;-56
2023/01/09 03:32:35;;;;;;;41.50;24.70;;;;;;;4.01;91.57;99469.98;107330;1255;97995;-51
2023/01/09 03:35:13;;;;;;;39.90;25.30;;;;;;;3.97;91.66;99469.40;107312;1257;88359;-56
2023/01/09 03:37:56;;;;;;;43.10;25.90;;;;;;;3.97;91.57;99464.81;107288;1256;94131;-57
2023/01/09 03:40:42;;;;;;;38.80;23.50;;;;;;;3.99;91.52;99460.48;107338;1260;79257;-58
2023/01/09 03:43:28;;;;;;;41.80;25.30;;;;;;;3.99;91.36;99448.18;107160;1257;84802;-57
2023/01/09 03:46:14;;;;;;;36.10;24.20;;;;;;;4.00;91.75;99440.98;107273;1259;97159;-50
2023/01/09 03:48:58;;;;;;;38.60;23.70;;;;;;;4.02;91.68;99432.60;107283;1257;88448;-56
2023/01/09 03:51:39;;;;;;;;;;;;;;;4.05;91.54;99428.40;107261;1257;94989;-58
2023/01/09 03:54:14;;;;;;;39.90;25.60;;;;;;;4.07;91.55;99429.39;107250;1257;81485;-57
2023/01/09 03:56:49;;;;;;;;;;;;;;;4.06;91.64;99419.44;107330;1257;81361;-56
2023/01/09 03:59:24;;;;;;;;;;;;;;;4.07;91.58;99412.19;107302;1258;97807;-56
2023/01/09 04:02:01;;;;;;;35.00;21.90;;;;;;;4.06;91.70;99409.73;107296;1259;87486;-57
2023/01/09 04:04:42;;;;;;;37.50;23.20;;;;;;;4.07;91.67;99410.38;107294;1258;95187;-58
2023/01/09 04:07:20;;;;;;;36.30;22.50;;;;;;;4.09;91.62;99408.30;107311;1260;81181;-57
2023/01/09 04:10:01;;;;;;;36.00;23.50;;;;;;;4.15;91.48;99408.95;107283;1257;80721;-55
2023/01/09 04:12:43;;;;;;;33.40;22.80;;;;;;;4.17;91.59;99409.04;107285;1256;99837;-56
2023/01/09 04:15:26;;;;;;;33.00;23.00;;;;;;;4.15;91.68;99410.12;107282;1259;89025;-58
2023/01/09 04:18:06;;;;;;;34.10;23.00;;;;;;;4.22;91.59;99410.83;107286;1258;95739;-59
2023/01/09 04:20:43;;;;;;;33.90;22.30;;;;;;;4.24;91.32;99405.73;107339;1258;82562;-56
2023/01/09 04:23:24;;;;;;;31.80;21.60;;;;;;;4.26;91.37;99405.16;107293;1256;82370;-56
2023/01/09 04:26:06;;;;;;;30.30;21.20;;;;;;;4.28;91.24;99408.41;107252;1259;99392;-54
2023/01/09 04:28:51;;;;;;;33.50;20.90;;;;;;;4.28;91.41;99407.00;107309;1259;89594;-56
2023/01/09 04:31:35;;;;;;;33.60;22.30;;;;;;;4.24;91.41;99406.82;107324;1258;94347;-55
2023/01/09 04:34:24;;;;;;;31.90;21.20;;;;;;;4.25;91.27;99406.38;107268;1257;79014;-56
2023/01/09 04:37:09;;;;;;;34.30;22.30;;;;;;;4.17;91.47;99400.53;107306;1257;81548;-52
2023/01/09 04:39:55;;;;;;;32.10;21.60;;;;;;;4.11;91.27;99403.62;107256;1259;97889;-56
2023/01/09 04:42:37;;;;;;;32.00;22.30;;;;;;;4.10;91.31;99405.70;107287;1260;88655;-56
2023/01/09 04:45:16;;;;;;;31.80;22.00;;;;;;;4.06;91.47;99405.89;107253;1259;94894;-56
2023/01/09 04:47:58;;;;;;;29.80;19.50;;;;;;;4.09;91.29;99409.08;107290;1260;81919;-55
2023/01/09 04:50:42;;;;;;;32.90;21.50;;;;;;;4.09;91.36;99399.85;107311;1259;82472;-59
2023/01/09 04:53:27;;;;;;;33.00;22.00;;;;;;;4.08;91.37;99398.45;107287;1257;98135;-59
2023/01/09 04:56:14;;;;;;;30.20;20.70;;;;;;;4.12;91.44;99401.05;107324;1260;88093;-56
2023/01/09 04:58:59;;;;;;;32.40;20.50;;;;;;;4.17;91.52;99402.83;107294;1258;95437;-55
2023/01/09 05:01:45;;;;;;;29.80;20.70;;;;;;;4.16;91.39;99404.13;107319;1260;80807;-56
2023/01/09 05:04:23;;;;;;;31.30;20.50;;;;;;;4.21;91.40;99392.42;107290;1259;81572;-58
2023/01/09 05:07:03;;;;;;;34.30;21.10;;;;;;;4.22;91.48;99384.14;107286;1260;98052;-57
2023/01/09 05:09:47;;;;;;;32.30;21.60;;;;;;;4.22;91.67;99386.41;107308;1257;88411;-58
2023/01/09 05:12:27;;;;;;;31.10;21.00;;;;;;;4.23;91.45;99382.56;107240;1258;93427;-57
2023/01/09 05:15:05;;;;;;;33.50;21.10;;;;;;;4.24;91.37;99380.28;107289;1260;80563;-57
2023/01/09 05:17:44;;;;;;;29.10;19.80;;;;;;;4.25;91.48;99377.95;107321;1257;82697;-57
2023/01/09 05:20:21;;;;;;;32.20;21.60;;;;;;;4.27;91.36;99385.52;107290;1260;100287;-57
2023/01/09 05:23:00;;;;;;;28.20;19.40;;;;;;;4.29;91.48;99381.16;107272;1260;88243;-58
2023/01/09 05:25:40;;;;;;;30.80;20.20;;;;;;;4.30;91.59;99379.66;107288;1259;92755;-55
2023/01/09 05:28:20;;;;;;;29.40;19.50;;;;;;;4.28;91.47;99380.52;107272;1258;82338;-56
2023/01/09 05:31:03;;;;;;;28.30;19.00;;;;;;;4.27;91.39;99373.91;107281;1257;81971;-58
2023/01/09 05:33:46;;;;;;;;;;;;;;;4.25;91.53;99369.09;107324;1258;99055;-55
2023/01/09 05:36:27;;;;;;;32.80;20.70;;;;;;;4.30;91.42;99358.04;107347;1258;89177;-57
2023/01/09 05:39:08;;;;;;;31.90;19.00;;;;;;;4.35;91.38;99355.10;107335;1260;94435;-55
2023/01/09 05:41:55;;;;;;;26.30;19.50;;;;;;;4.34;91.64;99359.02;107312;1257;82811;-57
2023/01/09 05:44:33;;;;;;;27.90;20.40;;;;;;;4.34;91.47;99354.50;107346;1255;80424;-57
2023/01/09 05:47:15;;;;;;;31.10;20.20;;;;;;;4.30;91.67;99350.89;107296;1257;97900;-53
2023/01/09 05:49:56;;;;;;;29.80;20.20;;;;;;;4.32;91.80;99339.64;107299;1257;87434;-58
2023/01/09 05:52:37;;;;;;;29.50;19.80;;;;;;;4.32;91.75;99342.86;107261;1260;95614;-60
2023/01/09 05:55:14;;;;;;;30.80;20.60;;;;;;;4.38;91.50;99336.45;107294;1260;81689;-59
2023/01/09 05:57:52;;;;;;;29.10;19.00;;;;;;;4.41;91.41;99342.14;107302;1257;83086;-57
2023/01/09 06:00:29;;;;;;;28.00;18.60;;;;;;;4.40;91.43;99344.98;106731;1258;642039;-58
2023/01/09 06:03:08;;;;;;;26.10;18.90;;;;;;;4.42;91.64;99345.45;107254;1257;88874;-57
2023/01/09 06:05:52;;;;;;;26.70;19.60;;;;;;;4.46;91.47;99350.54;107140;1258;96279;-58
2023/01/09 06:08:28;;;;;;;27.00;18.30;;;;;;;4.47;91.45;99346.08;107304;1257;82163;-58
2023/01/09 06:11:04;;;;;;;28.60;19.60;;;;;;;4.43;91.38;99342.21;107315;1257;82444;-57
2023/01/09 06:13:44;;;;;;;27.40;19.10;;;;;;;4.43;91.63;99333.50;107327;1258;97259;-57
2023/01/09 06:16:21;;;;;;;25.80;18.60;;;;;;;4.41;91.85;99338.63;107349;1260;86140;-59
2023/01/09 06:19:02;;;;;;;28.20;19.50;;;;;;;4.39;91.62;99336.90;107320;1260;95088;-57
2023/01/09 06:21:45;;;;;;;26.80;19.00;;;;;;;4.39;91.71;99329.18;107332;1257;82320;-56
2023/01/09 06:24:26;;;;;;;24.70;17.30;;;;;;;4.41;91.56;99335.05;107326;1257;82298;-56
2023/01/09 06:27:13;;;;;;;25.10;18.90;;;;;;;4.37;91.76;99331.08;107323;1259;98485;-58
2023/01/09 06:29:50;;;;;;;27.90;19.50;;;;;;;4.37;91.65;99335.02;107300;1260;87137;-58
2023/01/09 06:32:24;;;;;;;26.90;18.60;;;;;;;4.34;91.59;99334.59;107292;1260;95045;-60
2023/01/09 06:35:09;;;;;;;24.90;19.00;;;;;;;4.29;91.73;99338.23;107371;1257;81169;-59
2023/01/09 06:37:54;;;;;;;26.20;18.20;;;;;;;4.26;91.64;99335.41;107354;1257;82047;-61
2023/01/09 06:40:35;;;;;;;25.90;18.90;;;;;;;4.22;91.50;99338.42;107330;1258;97308;-55
2023/01/09 06:43:13;;;;;;;24.80;16.30;;;;;;;4.23;91.64;99337.03;107344;1258;89090;-58
2023/01/09 06:45:52;;;;;;;28.90;19.10;;;;;;;4.16;91.78;99335.58;107361;1260;95120;-60
2023/01/09 06:48:29;;;;;;;28.40;18.90;;;;;;;4.16;91.84;99330.94;107348;1257;81264;-60
2023/01/09 06:51:06;;;;;;;24.70;18.50;;;;;;;4.22;91.65;99323.31;107337;1257;80614;-62
2023/01/09 06:53:44;;;;;;;27.90;19.40;;;;;;;4.26;91.73;99323.61;107361;1258;97833;-60
2023/01/09 06:56:22;;;;;;;27.00;17.10;;;;;;;4.28;91.80;99323.33;107359;1257;86690;-62
2023/01/09 06:59:00;;;;;;;27.90;18.10;;;;;;;4.21;92.01;99323.93;107313;1257;94462;-60
2023/01/09 07:01:45;;;;;;;28.40;18.70;;;;;;;4.23;91.87;99322.92;107318;1256;81678;-57
2023/01/09 07:04:25;;;;;;;26.70;18.30;;;;;;;4.24;92.00;99318.80;107199;1256;83154;-56
2023/01/09 07:07:01;;;;;;;27.70;18.40;;;;;;;4.25;92.12;99314.38;107141;1258;102141;-52
2023/01/09 07:09:46;;;;;;;24.40;17.00;;;;;;;4.26;92.03;99311.19;107287;1257;88206;-55
2023/01/09 07:12:27;;;;;;;26.50;17.90;;;;;;;4.28;92.15;99316.61;107302;1257;92919;-53
2023/01/09 07:15:05;;;;;;;23.60;16.70;;;;;;;4.34;92.22;99311.30;107287;1260;82584;-58
2023/01/09 07:17:45;;;;;;;24.30;17.30;;;;;;;4.41;92.19;99308.89;107280;1257;81995;-58
2023/01/09 07:20:27;;;;;;;23.90;16.70;;;;;;;4.47;92.13;99302.55;107301;1260;100465;-57
2023/01/09 07:23:02;;;;;;;26.20;17.60;;;;;;;4.56;92.01;99301.84;107321;1257;89467;-57
2023/01/09 07:25:46;;;;;;;26.10;17.70;;;;;;;4.55;91.93;99295.34;107309;1256;95269;-57
2023/01/09 07:28:31;;;;;;;23.60;17.40;;;;;;;4.56;91.94;99301.66;107294;1257;81715;-55
2023/01/09 07:31:10;;;;;;;22.90;17.10;;;;;;;4.56;91.92;99305.79;107305;1260;82601;-55
2023/01/09 07:33:50;;;;;;;24.00;17.50;;;;;;;4.59;91.75;99312.90;107311;1257;100510;-56
2023/01/09 07:36:37;;;;;;;25.70;17.80;;;;;;;4.61;91.79;99312.73;107287;1257;88254;-58
2023/01/09 07:39:23;;;;;;;27.90;21.10;;;;;;;4.62;91.84;99308.50;107335;1257;94133;-56
2023/01/09 07:42:06;;;;;;;25.50;17.30;;;;;;;4.66;91.75;99305.04;107286;1257;80950;-57
2023/01/09 07:44:51;;;;;;;25.70;18.20;;;;;;;4.71;91.85;99301.48;107315;1257;81100;-58
2023/01/09 07:47:35;;;;;;;25.30;17.20;;;;;;;4.80;91.72;99299.29;107116;1257;100276;-54
2023/01/09 07:50:13;;;;;;;25.40;17.10;;;;;;;4.84;91.55;99304.26;107317;1255;89519;-56
2023/01/09 07:52:50;;;;;;;23.50;17.70;;;;;;;4.89;91.45;99296.34;107322;1257;95446;-58
2023/01/09 07:55:32;;;;;;;24.80;16.60;;;;;;;4.96;91.39;99291.41;107321;1257;79448;-59
2023/01/09 07:58:14;;;;;;;25.60;16.20;;;;;;;5.00;91.39;99288.44;107320;1257;82137;-61
2023/01/09 08:00:54;;;;;;;21.60;16.60;;;;;;;5.05;91.14;99282.90;107357;1258;99776;-58
2023/01/09 08:03:29;;;;;;;24.80;16.70;;;;;;;5.14;91.17;99285.83;107364;1257;87664;-58
2023/01/09 08:06:07;;;;;;;26.80;17.40;;;;;;;5.23;91.06;99284.58;107335;1257;94921;-59
2023/01/09 08:08:45;;;;;;;22.30;16.20;;;;;;;5.28;90.87;99270.27;107299;1256;79764;-58
2023/01/09 08:11:21;;;;;;;21.80;15.90;;;;;;;5.35;90.79;99271.96;107292;1257;81334;-57
2023/01/09 08:14:01;;;;;;;22.90;16.90;;;;;;;5.54;90.46;99274.50;107297;1256;99996;-56
2023/01/09 08:16:43;;;;;;;22.20;16.40;;;;;;;5.54;90.02;99279.79;107313;1257;87072;-50
2023/01/09 08:19:25;;;;;;;22.70;16.90;;;;;;;5.50;90.08;99275.55;107274;1256;95776;-57
2023/01/09 08:22:05;;;;;;;22.00;16.30;;;;;;;5.53;90.08;99267.09;107262;1256;78760;-58
2023/01/09 08:24:49;;;;;;;24.70;17.20;;;;;;;5.46;89.91;99272.41;107317;1256;83224;-56
2023/01/09 08:27:29;;;;;;;21.10;16.30;;;;;;;5.40;89.66;99284.23;107303;1258;99087;-56
2023/01/09 08:30:09;;;;;;;19.40;15.30;;;;;;;5.31;89.92;99277.05;107176;1257;88073;-57
2023/01/09 08:32:52;;;;;;;23.90;16.90;;;;;;;5.32;89.69;99279.99;107158;1256;93735;-54
2023/01/09 08:35:35;;;;;;;24.20;17.00;;;;;;;5.33;89.85;99279.95;107352;1257;81814;-59
2023/01/09 08:38:15;;;;;;;20.10;16.00;;;;;;;5.41;89.83;99272.80;107326;1258;83247;-57
2023/01/09 08:40:57;;;;;;;24.10;17.30;;;;;;;5.46;89.97;99265.33;107163;1257;98390;-54
2023/01/09 08:49:40;;;;;;;24.00;17.80;;;;;;;5.79;89.32;99262.61;107312;1255;79359;-58
2023/01/09 08:52:21;;;;;;;21.40;17.10;;;;;;;5.83;89.09;99265.05;107290;1257;82232;-58
2023/01/09 08:55:03;;;;;;;22.10;16.50;;;;;;;5.80;88.73;99259.70;107322;1257;99739;-58
2023/01/09 08:57:47;;;;;;;22.20;17.60;;;;;;;5.82;88.99;99258.86;107312;1257;88702;-56
2023/01/09 09:00:25;;;;;;;22.30;17.10;;;;;;;5.74;88.75;99259.25;107342;1257;95902;-57
2023/01/09 09:03:08;;;;;;;23.60;16.90;;;;;;;5.75;88.85;99266.11;107320;1256;79291;-56
2023/01/09 09:05:55;;;;;;;21.00;16.40;;;;;;;5.82;88.67;99270.86;107308;1256;83597;-57
2023/01/09 09:08:33;;;;;;;22.90;16.90;;;;;;;5.81;88.56;99267.72;107324;1257;99057;-59
2023/01/09 09:11:11;;;;;;;23.30;17.20;;;;;;;5.71;88.48;99262.71;107328;1257;88952;-58
2023/01/09 09:13:51;;;;;;;23.10;17.30;;;;;;;5.69;88.26;99255.98;107328;1256;94439;-58
2023/01/09 09:16:33;;;;;;;22.30;15.90;;;;;;;5.65;88.52;99247.05;107328;1256;81015;-56
2023/01/09 09:19:15;;;;;;;24.00;16.30;;;;;;;5.60;88.16;99249.45;107308;1257;83480;-51
2023/01/09 09:21:58;;;;;;;19.90;14.60;;;;;;;5.57;88.52;99249.81;107292;1256;99844;-57
2023/01/09 09:24:40;;;;;;;24.00;16.70;;;;;;;5.45;88.66;99239.69;107212;1257;86201;-56
2023/01/09 09:27:20;;;;;;;24.90;15.50;;;;;;;5.51;88.56;99234.98;107160;1257;95243;-47
2023/01/09 09:30:02;;;;;;;21.60;16.00;;;;;;;5.53;88.53;99228.91;107282;1257;81498;-56
2023/01/09 09:32:48;;;;;;;24.90;16.90;;;;;;;5.66;88.57;99217.23;107295;1255;82771;-55
2023/01/09 09:35:31;;;;;;;22.50;16.40;;;;;;;5.81;88.14;99217.61;107258;1257;100638;-57
2023/01/09 09:38:14;;;;;;;24.30;17.40;;;;;;;5.95;87.97;99217.61;107314;1257;87628;-58
2023/01/09 09:44:52;;;;;;;23.20;16.50;;;;;;;6.02;87.43;99226.10;107296;1257;79787;-59
2023/01/09 09:47:50;;;;;;;21.60;15.50;;;;;;;5.98;87.47;99228.16;107367;1257;82798;-56
2023/01/09 09:51:20;;;;;;;20.80;14.80;;;;;;;5.94;87.56;99222.38;107347;1257;99044;-47
2023/01/09 09:54:04;;;;;;;19.60;15.30;;;;;;;5.95;87.82;99219.95;107400;1256;86775;-56
2023/01/09 09:56:56;;;;;;;21.50;15.70;;;;;;;5.95;87.76;99218.14;107333;1257;93325;-58
2023/01/09 09:59:39;;;;;;;21.30;16.70;;;;;;;5.92;87.62;99220.55;107319;1256;82583;-60
2023/01/09 10:02:29;;;;;;;20.10;16.70;;;;;;;5.92;87.49;99220.17;107381;1256;82601;-59
2023/01/09 10:05:19;;;;;;;19.50;15.70;;;;;;;5.93;87.44;99206.95;107320;1259;99185;-59
2023/01/09 10:08:05;;;;;;;23.60;15.60;;;;;;;5.91;87.66;99206.85;107316;1256;88016;-58
2023/01/09 10:10:51;;;;;;;24.60;16.30;;;;;;;5.94;87.66;99203.09;107321;1257;94162;-55
2023/01/09 10:16:44;;;;;;;22.10;16.00;;;;;;;6.01;87.39;99202.74;107111;1257;81401;-53
2023/01/09 10:19:46;;;;;;;19.60;15.70;;;;;;;6.01;87.13;99200.69;107330;1256;97336;-57
2023/01/09 10:22:39;;;;;;;17.30;14.20;;;;;;;6.03;87.24;99201.75;107290;1257;88691;-58
2023/01/09 10:25:28;;;;;;;23.50;15.90;;;;;;;6.04;87.25;99206.54;107295;1257;95259;-57
2023/01/09 10:28:34;;;;;;;23.00;16.50;;;;;;;6.00;87.27;99207.65;107301;1255;79895;-57
2023/01/09 10:31:28;;;;;;;21.20;15.70;;;;;;;6.00;87.06;99203.77;107317;1257;83048;-56
2023/01/09 10:34:22;;;;;;;22.30;16.70;;;;;;;6.02;87.27;99201.03;107320;1257;99056;-56
2023/01/09 10:37:13;;;;;;;22.50;16.50;;;;;;;6.00;87.32;99204.02;107374;1257;88726;-56
2023/01/09 10:40:03;;;;;;;21.60;16.10;;;;;;;5.91;87.31;99206.98;107394;1259;94246;-57
2023/01/09 10:42:46;;;;;;;20.60;15.10;;;;;;;5.78;87.20;99202.08;107300;1259;81965;-60
2023/01/09 10:45:26;;;;;;;22.60;16.50;;;;;;;5.74;87.43;99203.47;107352;1256;80339;-59
2023/01/09 10:48:06;;;;;;;24.50;16.80;;;;;;;5.72;87.52;99188.69;107340;1259;99378;-60
2023/01/09 10:50:48;;;;;;;23.60;16.50;;;;;;;5.74;87.62;99188.80;107320;1256;89215;-62
2023/01/09 10:53:37;;;;;;;23.20;16.70;;;;;;;5.73;87.66;99180.88;107214;1262;93723;-62
2023/01/09 10:56:23;;;;;;;21.90;16.50;;;;;;;5.73;87.86;99178.36;107309;1257;82073;-58
2023/01/09 10:59:09;;;;;;;21.30;16.00;;;;;;;5.79;87.91;99173.89;107323;1258;79965;-58
2023/01/09 11:01:52;;;;;;;20.40;16.40;;;;;;;5.80;87.93;99165.66;107319;1256;97670;-63
2023/01/09 11:04:42;;;;;;;21.60;16.20;;;;;;;5.83;88.05;99165.70;107308;1256;88988;-58
2023/01/09 11:07:30;;;;;;;24.30;15.90;;;;;;;5.84;88.17;99165.89;107156;1258;94238;-57
2023/01/09 11:10:12;;;;;;;21.20;16.20;;;;;;;5.87;88.41;99165.94;107322;1257;82595;-58
2023/01/09 11:12:51;;;;;;;21.00;16.90;;;;;;;5.85;88.34;99158.65;107324;1256;81314;-58
2023/01/09 11:15:32;;;;;;;21.70;16.70;;;;;;;5.88;88.51;99158.31;107272;1257;97831;-59
2023/01/09 11:18:25;;;;;;;22.90;16.40;;;;;;;5.83;88.80;99149.58;107338;1257;87991;-55
2023/01/09 11:21:14;;;;;;;19.00;14.20;;;;;;;5.92;88.68;99143.86;107374;1257;94317;-59
2023/01/09 11:23:56;;;;;;;22.50;16.10;;;;;;;5.92;88.89;99138.16;107338;1257;81484;-54
2023/01/09 11:26:38;;;;;;;23.00;16.40;;;;;;;5.93;89.10;99133.52;107425;1256;82445;-57
2023/01/09 11:29:20;;;;;;;20.30;15.50;;;;;;;5.99;89.27;99127.27;107401;1257;98855;-57
2023/01/09 11:32:04;;;;;;;23.00;16.00;;;;;;;5.98;89.39;99121.10;107316;1259;88572;-67
2023/01/09 11:34:48;;;;;;;20.50;15.70;;;;;;;6.03;89.66;99115.85;107345;1256;95566;-65
2023/01/09 11:37:31;;;;;;;22.80;16.90;;;;;;;6.03;89.68;99112.32;107349;1257;82477;-47
2023/01/09 11:40:16;;;;;;;20.90;16.30;;;;;;;6.06;89.69;99110.76;107333;1259;82397;-58
2023/01/09 11:43:14;;;;;;;22.90;15.90;;;;;;;6.11;89.67;99109.98;107303;1256;98947;-59
2023/01/09 11:46:00;;;;;;;23.30;17.50;;;;;;;6.10;89.67;99104.23;107317;1256;89919;-55
2023/01/09 11:48:56;;;;;;;23.40;16.30;;;;;;;6.11;89.71;99104.45;107294;1255;93735;-47
2023/01/09 11:51:37;;;;;;;23.90;16.50;;;;;;;6.11;89.79;99100.16;107321;1256;80240;-58
2023/01/09 11:54:25;;;;;;;20.60;16.50;;;;;;;6.08;89.88;99100.98;107328;1256;80295;-59
2023/01/09 11:57:04;;;;;;;24.90;16.30;;;;;;;6.08;89.92;99095.52;107331;1256;99491;-41
2023/01/09 11:59:49;;;;;;;23.80;16.60;;;;;;;6.06;90.21;99094.55;107301;1259;88884;-57
2023/01/09 12:03:03;;;;;;;20.60;15.70;;;;;;;6.08;90.28;99096.79;107316;1256;95232;-57
2023/01/09 12:05:53;;;;;;;22.20;16.40;;;;;;;6.00;90.38;99090.70;107277;1256;81580;-53
2023/01/09 12:08:48;;;;;;;24.90;17.10;;;;;;;6.02;90.48;99085.02;107288;1257;82354;-55
2023/01/09 12:11:32;;;;;;;19.00;15.30;;;;;;;6.05;90.75;99078.98;107337;1256;97624;-58
2023/01/09 12:14:51;;;;;;;23.80;16.60;;;;;;;6.04;90.85;99074.40;107352;1257;87747;-60
2023/01/09 12:17:57;;;;;;;23.90;17.40;;;;;;;6.03;91.12;99073.94;107176;1257;95057;-59
2023/01/09 12:20:51;;;;;;;22.10;16.50;;;;;;;6.06;91.01;99071.17;107367;1256;81115;-54
2023/01/09 12:23:43;;;;;;;22.80;16.90;;;;;;;6.10;90.97;99069.80;107372;1256;83175;-58
2023/01/09 12:26:24;;;;;;;22.10;16.90;;;;;;;6.07;91.40;99067.58;107325;1256;99146;-58
2023/01/09 12:29:37;;;;;;;22.40;16.50;;;;;;;6.04;91.32;99065.73;107338;1256;88111;-58
2023/01/09 12:32:42;;;;;;;22.10;16.80;;;;;;;6.04;91.42;99063.89;107319;1256;93566;-57
2023/01/09 12:35:36;;;;;;;21.50;16.40;;;;;;;6.03;91.45;99060.77;107360;1255;81897;-56
2023/01/09 12:38:49;;;;;;;20.10;17.10;;;;;;;6.07;91.69;99054.55;107328;1256;81877;-59
2023/01/09 12:42:02;;;;;;;22.10;16.40;;;;;;;6.10;91.78;99053.38;107342;1257;100016;-57
2023/01/09 12:44:51;;;;;;;22.60;16.30;;;;;;;6.14;91.74;99053.30;107336;1257;87707;-58
2023/01/09 12:47:47;;;;;;;20.10;16.30;;;;;;;6.14;91.87;99058.56;107288;1256;93042;-50
2023/01/09 12:51:01;;;;;;;21.50;16.50;;;;;;;6.11;92.24;99063.13;107268;1256;81744;-56
2023/01/09 12:53:41;;;;;;;20.00;14.70;;;;;;;6.06;92.45;99060.80;107323;1257;83092;-56